Time;durP1;ratioP1;P1;durP2;ratioP2;P2;SDS_P1;SDS_P2;PMS_P1;PMS_P2;Temp;Humidity;BMP_temperature;BMP_pressure;BME280_temperature;BME280_humidity;BME280_pressure;Samples;Min_cycle;Max_cycle;Signal;HPM_P1;HPM_P2
2023/06/18 00:01:32;;;;;;;13.30;11.90;;;15.30;1.00;;;;;;5092945;28;20220;-68
2023/06/18 00:04:00;;;;;;;11.70;10.60;;;15.20;1.00;;;;;;5093949;28;20205;-69
2023/06/18 00:12:44;;;;;;;11.80;10.50;;;15.20;1.00;;;;;;5073224;28;20387;-70
2023/06/18 00:15:10;;;;;;;15.67;11.07;;;15.10;1.00;;;;;;5073685;28;20407;-68
2023/06/18 00:17:36;;;;;;;12.63;10.73;;;15.10;1.00;;;;;;5073533;28;20800;-69
2023/06/18 00:20:03;;;;;;;11.83;10.73;;;15.10;1.00;;;;;;5090374;28;20424;-70
2023/06/18 00:22:29;;;;;;;12.07;10.97;;;15.10;1.00;;;;;;5093253;28;20439;-69
2023/06/18 00:24:55;;;;;;;12.07;10.17;;;15.00;1.00;;;;;;5093408;28;20976;-69
2023/06/18 00:27:21;;;;;;;14.40;11.30;;;14.90;1.00;;;;;;5092276;28;20443;-68
2023/06/18 00:29:47;;;;;;;11.87;10.60;;;14.90;1.00;;;;;;5093426;28;20165;-68
2023/06/18 00:32:19;;;;;;;10.47;9.47;;;14.90;1.00;;;;;;5092141;28;20935;-68
2023/06/18 00:34:46;;;;;;;11.80;10.60;;;14.90;1.00;;;;;;5092683;28;20955;-69
2023/06/18 00:37:12;;;;;;;11.57;10.50;;;14.80;1.00;;;;;;5093423;28;20407;-70
2023/06/18 00:39:38;;;;;;;12.20;11.10;;;14.80;1.00;;;;;;5093471;28;20402;-67
2023/06/18 00:42:10;;;;;;;13.60;11.00;;;14.80;1.00;;;;;;5074256;28;20440;-68
2023/06/18 00:44:40;;;;;;;11.57;10.57;;;14.80;1.00;;;;;;5093191;28;20420;-69
2023/06/18 00:47:11;;;;;;;10.87;9.87;;;14.80;1.00;;;;;;5091707;28;20435;-71
2023/06/18 00:49:41;;;;;;;10.90;9.80;;;14.80;1.00;;;;;;5093161;28;20424;-68
2023/06/18 00:52:14;;;;;;;18.30;10.90;;;14.80;1.00;;;;;;5092370;28;20400;-68
2023/06/18 00:54:47;;;;;;;12.30;10.97;;;14.80;1.00;;;;;;5093121;28;20445;-68
2023/06/18 00:57:15;;;;;;;11.80;10.70;;;14.80;1.00;;;;;;5093078;28;20404;-70
2023/06/18 00:59:51;;;;;;;11.27;10.23;;;14.80;1.00;;;;;;5093403;28;20403;-68
2023/06/18 01:02:23;;;;;;;10.33;9.37;;;14.70;1.00;;;;;;5090996;28;20482;-70
2023/06/18 01:05:05;;;;;;;;;;;;;;;;;;;;;
2023/06/18 01:07:33;;;;;;;11.47;10.20;;;14.70;1.00;;;;;;5093689;28;20445;-68
2023/06/18 01:10:00;;;;;;;11.27;10.17;;;14.60;1.00;;;;;;5099573;28;20403;-69
2023/06/18 01:12:28;;;;;;;11.03;9.93;;;14.60;1.00;;;;;;5099309;28;20950;-68
2023/06/18 01:14:57;;;;;;;11.03;9.93;;;14.60;1.00;;;;;;5098931;28;20459;-68
2023/06/18 01:17:33;;;;;;;12.33;11.13;;;14.50;1.00;;;;;;5099047;28;20813;-68
2023/06/18 01:20:14;;;;;;;11.13;10.13;;;14.50;1.00;;;;;;5099344;28;20402;-69
2023/06/18 01:22:57;;;;;;;10.70;9.60;;;14.50;1.00;;;;;;5098938;28;20434;-69
2023/06/18 01:25:27;;;;;;;10.57;9.40;;;14.40;1.00;;;;;;5099612;28;20431;-68
2023/06/18 01:27:56;;;;;;;11.00;9.70;;;14.40;1.00;;;;;;5099807;28;20366;-68
2023/06/18 01:30:22;;;;;;;10.43;9.13;;;14.40;1.00;;;;;;5098057;28;20427;-69
2023/06/18 01:32:54;;;;;;;11.03;9.87;;;14.40;1.00;;;;;;5081586;28;20416;-68
2023/06/18 01:35:21;;;;;;;11.30;10.20;;;14.40;1.00;;;;;;5099552;28;20494;-69
2023/06/18 01:38:21;;;;;;;10.77;9.77;;;14.40;1.00;;;;;;5098855;28;20882;-69
2023/06/18 01:41:10;;;;;;;10.23;9.13;;;14.40;1.00;;;;;;5098114;28;20410;-70
2023/06/18 01:44:08;;;;;;;11.43;10.33;;;14.30;1.00;;;;;;5098759;28;20451;-68
2023/06/18 01:46:35;;;;;;;10.67;9.57;;;14.30;1.00;;;;;;5083798;28;20492;-68
2023/06/18 01:49:04;;;;;;;10.93;9.83;;;14.30;1.00;;;;;;5098581;28;20431;-69
2023/06/18 01:51:32;;;;;;;12.07;9.80;;;14.20;1.00;;;;;;5079002;28;21134;-68
2023/06/18 01:54:01;;;;;;;11.90;10.57;;;14.20;1.00;;;;;;5081457;28;20427;-69
2023/06/18 01:56:29;;;;;;;9.80;8.80;;;14.10;1.00;;;;;;5098813;28;20431;-69
2023/06/18 01:58:55;;;;;;;9.60;8.60;;;14.10;1.00;;;;;;5097667;28;20405;-69
2023/06/18 02:01:22;;;;;;;10.03;8.90;;;14.10;1.00;;;;;;5098314;28;20446;-71
2023/06/18 02:03:48;;;;;;;11.87;10.73;;;14.00;1.00;;;;;;5099254;28;20449;-68
2023/06/18 02:06:15;;;;;;;9.87;9.07;;;14.00;1.00;;;;;;5099269;28;20407;-68
2023/06/18 02:08:41;;;;;;;11.13;9.60;;;14.00;1.00;;;;;;5099274;28;20465;-68
2023/06/18 02:11:08;;;;;;;12.17;9.87;;;14.00;1.00;;;;;;5098414;28;20407;-68
2023/06/18 02:13:34;;;;;;;11.33;10.23;;;14.00;1.00;;;;;;5098436;28;20884;-68
2023/06/18 02:16:00;;;;;;;10.47;9.43;;;14.00;1.00;;;;;;5098368;28;20495;-69
2023/06/18 02:18:25;;;;;;;10.67;9.53;;;14.00;1.00;;;;;;5098169;28;20412;-68
2023/06/18 02:20:52;;;;;;;10.60;9.70;;;14.00;1.00;;;;;;5094353;28;20173;-67
2023/06/18 02:23:18;;;;;;;11.40;10.40;;;13.90;1.00;;;;;;5094105;28;20200;-69
2023/06/18 02:25:44;;;;;;;18.37;10.63;;;13.90;1.00;;;;;;5092835;28;20452;-69
2023/06/18 02:28:11;;;;;;;11.17;10.07;;;13.90;1.00;;;;;;5095774;28;20442;-68
2023/06/18 02:30:40;;;;;;;11.63;10.43;;;13.90;1.00;;;;;;5095068;28;20464;-69
2023/06/18 02:33:06;;;;;;;12.40;10.77;;;13.90;1.00;;;;;;5077655;28;20443;-68
2023/06/18 02:35:32;;;;;;;12.37;11.17;;;13.90;1.00;;;;;;5094736;28;20404;-69
2023/06/18 02:37:58;;;;;;;15.13;11.07;;;13.90;1.00;;;;;;5095617;28;20262;-69
2023/06/18 02:40:24;;;;;;;11.67;10.47;;;13.90;1.00;;;;;;5075819;28;20544;-68
2023/06/18 02:43:05;;;;;;;10.67;9.67;;;13.80;1.00;;;;;;5095467;28;20898;-69
2023/06/18 02:45:31;;;;;;;12.47;11.17;;;13.80;1.00;;;;;;5095553;28;20488;-68
2023/06/18 02:48:06;;;;;;;11.10;10.00;;;13.80;1.00;;;;;;5076396;28;20434;-68
2023/06/18 02:50:32;;;;;;;11.40;10.40;;;13.80;1.00;;;;;;5094532;28;20454;-69
2023/06/18 02:52:58;;;;;;;11.77;10.57;;;13.80;1.00;;;;;;5095343;28;20474;-68
2023/06/18 02:55:23;;;;;;;12.50;11.27;;;13.80;1.00;;;;;;5093774;28;20180;-69
2023/06/18 02:57:50;;;;;;;12.40;10.67;;;13.80;1.00;;;;;;5095238;28;20185;-69
2023/06/18 03:00:16;;;;;;;12.70;11.40;;;13.80;1.00;;;;;;5076202;28;20561;-69
2023/06/18 03:02:42;;;;;;;12.53;11.30;;;13.80;1.00;;;;;;5094995;28;20450;-68
2023/06/18 03:05:08;;;;;;;15.13;11.10;;;13.80;1.00;;;;;;5077139;28;20411;-68
2023/06/18 03:07:34;;;;;;;12.57;11.37;;;13.70;1.00;;;;;;5095177;28;20208;-68
2023/06/18 03:10:00;;;;;;;14.07;11.03;;;13.70;1.00;;;;;;5094774;28;20411;-68
2023/06/18 03:12:28;;;;;;;12.30;11.20;;;13.60;1.00;;;;;;5092902;28;20435;-69
2023/06/18 03:14:54;;;;;;;12.30;11.00;;;13.60;1.00;;;;;;5094877;28;20665;-68
2023/06/18 03:17:21;;;;;;;14.10;11.70;;;13.60;1.00;;;;;;5094992;28;20400;-69
2023/06/18 03:19:46;;;;;;;10.67;9.67;;;13.60;1.00;;;;;;5094437;28;20446;-68
2023/06/18 03:22:12;;;;;;;13.80;10.80;;;13.60;1.00;;;;;;5093889;28;20459;-68
2023/06/18 03:24:38;;;;;;;13.60;10.50;;;13.70;1.00;;;;;;5075878;28;20618;-67
2023/06/18 03:27:04;;;;;;;18.63;12.00;;;13.70;1.00;;;;;;5094859;28;20161;-68
2023/06/18 03:29:30;;;;;;;10.70;9.70;;;13.70;1.00;;;;;;5076560;28;20245;-68
2023/06/18 03:31:56;;;;;;;15.80;11.17;;;13.70;1.00;;;;;;5092683;28;20399;-70
2023/06/18 03:34:23;;;;;;;11.40;10.33;;;13.70;1.00;;;;;;5094561;28;20197;-68
2023/06/18 03:36:49;;;;;;;12.20;11.00;;;13.80;1.00;;;;;;5094615;28;20399;-69
2023/06/18 03:39:16;;;;;;;11.03;9.93;;;13.80;1.00;;;;;;5075831;28;20505;-69
2023/06/18 03:41:42;;;;;;;10.53;9.40;;;13.80;1.00;;;;;;5093611;28;20538;-69
2023/06/18 03:44:08;;;;;;;12.13;10.90;;;13.80;1.00;;;;;;5094284;28;20427;-69
2023/06/18 03:46:35;;;;;;;11.87;10.30;;;13.90;1.00;;;;;;5093924;28;20827;-69
2023/06/18 03:49:01;;;;;;;12.03;10.83;;;13.80;1.00;;;;;;5093645;28;20884;-67
2023/06/18 03:51:27;;;;;;;11.70;10.60;;;13.90;1.00;;;;;;5093375;28;20419;-68
2023/06/18 03:53:56;;;;;;;11.77;10.33;;;13.90;1.00;;;;;;5092388;28;20262;-68
2023/06/18 03:56:42;;;;;;;11.63;10.40;;;14.00;1.00;;;;;;5075923;28;20411;-69
2023/06/18 03:59:30;;;;;;;;;;;;;;;;;;;;;
2023/06/18 04:01:56;;;;;;;13.70;11.53;;;14.00;1.00;;;;;;5091880;28;20443;-70
2023/06/18 04:04:22;;;;;;;10.73;9.73;;;14.10;1.00;;;;;;5094003;28;20432;-69
2023/06/18 04:06:48;;;;;;;11.93;10.83;;;14.10;1.00;;;;;;5092402;28;20394;-71
2023/06/18 04:09:20;;;;;;;11.00;10.00;;;14.10;1.00;;;;;;5093779;28;20483;-69
2023/06/18 04:11:46;;;;;;;10.47;9.47;;;14.20;1.00;;;;;;5093191;28;20738;-69
2023/06/18 04:14:12;;;;;;;11.37;10.27;;;14.20;1.00;;;;;;5093756;28;20433;-68
2023/06/18 04:16:38;;;;;;;10.67;9.60;;;14.20;1.00;;;;;;5093692;28;20204;-69
2023/06/18 04:19:04;;;;;;;10.13;8.80;;;14.20;1.00;;;;;;5093785;28;20174;-69
2023/06/18 04:21:35;;;;;;;9.83;8.93;;;14.20;1.00;;;;;;5091319;28;20546;-69
2023/06/18 04:24:02;;;;;;;9.07;8.30;;;14.30;1.00;;;;;;5093512;28;20803;-68
2023/06/18 04:27:15;;;;;;;9.20;8.40;;;14.30;1.00;;;;;;5092744;28;20439;-70
2023/06/18 04:30:39;;;;;;;;;;;;;;;;;;;;;
2023/06/18 04:33:47;;;;;;;10.47;9.27;;;14.40;1.00;;;;;;5089836;28;20918;-68
2023/06/18 04:36:19;;;;;;;13.10;10.27;;;14.40;1.20;;;;;;5072342;28;20447;-68
2023/06/18 04:38:45;;;;;;;10.00;8.97;;;14.50;5.70;;;;;;5073100;28;20816;-69
2023/06/18 04:41:14;;;;;;;9.20;8.40;;;14.50;11.70;;;;;;5072153;28;20436;-70
2023/06/18 04:43:40;;;;;;;9.80;8.80;;;14.60;18.00;;;;;;5072214;28;20485;-69
2023/06/18 04:46:06;;;;;;;8.50;7.80;;;14.60;25.80;;;;;;5072631;28;20388;-69
2023/06/18 04:48:34;;;;;;;9.50;8.70;;;14.70;35.80;;;;;;5089411;28;20420;-69
2023/06/18 04:50:59;;;;;;;9.27;8.47;;;14.70;44.30;;;;;;5092292;28;20173;-69
2023/06/18 04:53:25;;;;;;;10.43;9.43;;;14.70;51.00;;;;;;5093162;28;20446;-69
2023/06/18 04:55:51;;;;;;;10.80;9.70;;;14.80;63.20;;;;;;5093377;28;20170;-69
2023/06/18 04:59:16;;;;;;;;;;;;;;;;;;;;;
2023/06/18 05:01:43;;;;;;;14.80;11.00;;;14.90;86.80;;;;;;4996995;28;20211;-68
2023/06/18 05:04:11;;;;;;;14.23;12.50;;;14.90;93.80;;;;;;5066479;28;20441;-69
2023/06/18 05:06:37;;;;;;;13.33;11.87;;;15.00;93.90;;;;;;5051874;28;20446;-69
2023/06/18 05:09:03;;;;;;;13.93;12.23;;;15.20;99.90;;;;;;5057586;28;20426;-69
2023/06/18 05:11:42;;;;;;;12.20;11.00;;;15.20;99.90;;;;;;5092190;28;20184;-68
2023/06/18 05:14:08;;;;;;;13.20;11.90;;;15.30;99.90;;;;;;5072042;28;20431;-68
2023/06/18 05:16:34;;;;;;;12.83;11.53;;;15.40;99.90;;;;;;5091091;28;20488;-69
2023/06/18 05:22:17;;;;;;;12.83;11.60;;;15.60;99.90;;;;;;5071369;28;20201;-71
2023/06/18 05:24:43;;;;;;;14.00;12.50;;;15.70;99.90;;;;;;5067105;28;20468;-68
2023/06/18 05:27:34;;;;;;;17.17;14.13;;;15.80;99.90;;;;;;5072701;28;20502;-68
2023/06/18 05:30:46;;;;;;;15.57;13.97;;;15.90;99.90;;;;;;5060364;28;20181;-69
2023/06/18 05:33:23;;;;;;;;;;;;;;;;;;;;;
2023/06/18 05:35:52;;;;;;;17.17;15.40;;;16.20;99.90;;;;;;5093002;28;20395;-68
2023/06/18 05:38:41;;;;;;;14.20;12.80;;;16.30;99.90;;;;;;5092050;28;20450;-69
2023/06/18 05:41:07;;;;;;;19.80;12.90;;;16.40;99.90;;;;;;5061159;28;20416;-67
2023/06/18 05:43:33;;;;;;;17.33;14.60;;;16.50;99.90;;;;;;5091855;28;20423;-66
2023/06/18 05:45:59;;;;;;;15.67;14.07;;;16.70;99.90;;;;;;5091816;28;20415;-66
2023/06/18 05:48:35;;;;;;;17.70;12.70;;;16.80;99.90;;;;;;5092648;28;20170;-66
2023/06/18 05:51:12;;;;;;;13.90;12.57;;;16.90;99.90;;;;;;5089649;28;20427;-66
2023/06/18 05:53:38;;;;;;;14.40;12.90;;;17.00;99.90;;;;;;5093639;28;20434;-66
2023/06/18 05:56:04;;;;;;;11.50;10.37;;;17.20;99.90;;;;;;5075045;28;20431;-66
2023/06/18 05:58:40;;;;;;;;;;;;;;;;;;;;;
2023/06/18 06:01:34;;;;;;;12.40;11.10;;;17.50;99.90;;;;;;5082748;28;20418;-66
2023/06/18 06:04:01;;;;;;;12.20;11.00;;;17.70;99.90;;;;;;5050690;28;20490;-65
2023/06/18 06:06:28;;;;;;;10.57;9.63;;;17.80;99.90;;;;;;5058444;28;20419;-65
2023/06/18 06:08:55;;;;;;;11.27;9.73;;;17.90;99.90;;;;;;5075982;28;20950;-66
2023/06/18 06:11:24;;;;;;;11.70;10.50;;;18.10;99.90;;;;;;5075018;28;20443;-66
2023/06/18 06:13:50;;;;;;;13.10;11.00;;;18.20;99.90;;;;;;5075796;28;20792;-66
2023/06/18 06:16:24;;;;;;;10.83;9.83;;;18.30;99.90;;;;;;5092588;28;20430;-66
2023/06/18 06:18:51;;;;;;;10.50;9.40;;;18.40;92.70;;;;;;5095586;28;20965;-66
2023/06/18 06:21:17;;;;;;;11.00;9.80;;;18.50;72.40;;;;;;5094441;28;20450;-66
2023/06/18 06:23:45;;;;;;;9.20;8.30;;;18.50;62.40;;;;;;5077741;28;20837;-66
2023/06/18 06:26:14;;;;;;;10.37;9.37;;;18.60;40.50;;;;;;5095931;28;20398;-66
2023/06/18 06:28:40;;;;;;;9.07;8.17;;;18.70;17.20;;;;;;5078050;28;20399;-66
2023/06/18 06:31:06;;;;;;;8.37;7.60;;;18.80;1.00;;;;;;5094205;28;20761;-66
2023/06/18 06:33:32;;;;;;;10.00;8.70;;;18.90;1.00;;;;;;5095596;28;20426;-67
2023/06/18 06:35:58;;;;;;;8.97;8.27;;;19.00;1.00;;;;;;5095571;28;20392;-67
2023/06/18 06:38:24;;;;;;;9.67;8.77;;;19.10;1.00;;;;;;5076978;28;20412;-70
2023/06/18 06:41:02;;;;;;;9.27;8.27;;;19.10;1.00;;;;;;5076332;28;20170;-67
2023/06/18 06:43:28;;;;;;;8.40;7.60;;;19.20;1.00;;;;;;5094731;28;20446;-66
2023/06/18 06:45:57;;;;;;;9.63;7.93;;;19.30;1.00;;;;;;5095463;28;20396;-67
2023/06/18 06:48:22;;;;;;;9.37;8.30;;;19.40;1.00;;;;;;5095725;28;20653;-66
2023/06/18 06:50:52;;;;;;;10.23;7.40;;;19.50;1.00;;;;;;5094516;28;20419;-66
2023/06/18 06:53:17;;;;;;;9.13;7.93;;;19.60;1.00;;;;;;5095347;28;20650;-66
2023/06/18 06:55:51;;;;;;;9.87;8.97;;;19.60;1.00;;;;;;5095441;28;20398;-66
2023/06/18 06:58:17;;;;;;;8.80;8.03;;;19.80;1.00;;;;;;5093640;28;20185;-68
2023/06/18 07:00:43;;;;;;;8.70;7.90;;;19.90;1.00;;;;;;5094110;28;20404;-67
2023/06/18 07:03:09;;;;;;;8.67;7.70;;;20.10;1.00;;;;;;5095193;28;20692;-68
2023/06/18 07:05:35;;;;;;;10.50;7.97;;;20.10;1.00;;;;;;5094455;28;20403;-70
2023/06/18 07:08:05;;;;;;;9.30;8.13;;;20.10;1.00;;;;;;5094989;28;20402;-68
2023/06/18 07:11:14;;;;;;;9.00;8.20;;;20.20;1.00;;;;;;5093589;28;20423;-69
2023/06/18 07:13:42;;;;;;;8.83;7.93;;;20.30;1.00;;;;;;5094188;28;20431;-69
2023/06/18 07:16:08;;;;;;;8.50;7.80;;;20.40;1.00;;;;;;5094133;28;20416;-70
2023/06/18 07:18:34;;;;;;;8.67;7.77;;;20.40;1.00;;;;;;5093948;28;20489;-70
2023/06/18 07:21:00;;;;;;;10.27;8.40;;;20.50;1.00;;;;;;5075183;28;20226;-68
2023/06/18 07:23:26;;;;;;;8.00;7.30;;;20.60;1.00;;;;;;5094790;28;20416;-69
2023/06/18 07:25:52;;;;;;;8.40;7.43;;;20.70;1.00;;;;;;5094885;28;20795;-69
2023/06/18 07:28:18;;;;;;;8.40;7.63;;;20.80;1.00;;;;;;5092614;28;20182;-68
2023/06/18 07:30:46;;;;;;;10.93;7.83;;;20.90;1.00;;;;;;5093857;28;20157;-68
2023/06/18 07:33:21;;;;;;;;;;;;;;;;;;;;;
2023/06/18 07:35:48;;;;;;;8.87;7.97;;;21.00;1.00;;;;;;5094054;28;20741;-69
2023/06/18 07:38:14;;;;;;;7.33;6.73;;;21.10;1.00;;;;;;5094408;28;20422;-68
2023/06/18 07:40:40;;;;;;;8.80;7.00;;;21.20;1.00;;;;;;5093503;28;20395;-70
2023/06/18 07:43:06;;;;;;;10.20;6.67;;;21.30;1.00;;;;;;5094416;28;20561;-68
2023/06/18 07:45:35;;;;;;;7.00;6.40;;;21.40;1.00;;;;;;5094455;28;20694;-68
2023/06/18 07:48:01;;;;;;;8.87;7.30;;;21.50;1.00;;;;;;5093721;28;20392;-70
2023/06/18 07:50:27;;;;;;;9.07;8.17;;;21.60;1.00;;;;;;5075266;28;20423;-69
2023/06/18 07:52:53;;;;;;;7.73;6.87;;;21.80;1.00;;;;;;5093758;28;20162;-70
2023/06/18 07:55:18;;;;;;;8.27;7.30;;;21.90;1.00;;;;;;5092345;28;20193;-70
2023/06/18 07:57:44;;;;;;;8.70;7.90;;;21.90;1.00;;;;;;5073980;28;20178;-68
2023/06/18 08:00:10;;;;;;;9.63;6.93;;;21.90;1.00;;;;;;5072850;28;20174;-69
2023/06/18 08:02:36;;;;;;;7.43;6.73;;;22.00;1.00;;;;;;5074872;28;20268;-70
2023/06/18 08:05:02;;;;;;;8.73;6.03;;;22.20;1.00;;;;;;5094087;28;20400;-68
2023/06/18 08:07:28;;;;;;;7.07;6.47;;;22.20;1.00;;;;;;5093946;28;20194;-68
2023/06/18 08:09:54;;;;;;;7.47;6.77;;;22.20;1.00;;;;;;5093701;28;20498;-69
2023/06/18 08:12:19;;;;;;;8.07;7.30;;;22.30;1.00;;;;;;5092742;28;20169;-70
2023/06/18 08:14:48;;;;;;;8.33;6.70;;;22.30;1.00;;;;;;5075091;28;20189;-69
2023/06/18 08:17:17;;;;;;;6.43;5.90;;;22.30;1.00;;;;;;5092189;28;20205;-69
2023/06/18 08:19:47;;;;;;;8.43;6.90;;;22.30;99.90;;;;;;5093337;28;20435;-68
2023/06/18 08:22:15;;;;;;;7.90;6.87;;;22.40;1.00;;;;;;5092906;28;20444;-70
2023/06/18 08:24:41;;;;;;;6.53;6.03;;;22.40;99.90;;;;;;5093581;28;20420;-69
2023/06/18 08:27:07;;;;;;;6.43;5.83;;;22.40;99.90;;;;;;5093795;28;20939;-68
2023/06/18 08:29:33;;;;;;;6.70;6.07;;;22.60;99.90;;;;;;5093265;28;20395;-69
2023/06/18 08:32:04;;;;;;;8.23;7.37;;;22.70;99.90;;;;;;5064580;28;20443;-68
2023/06/18 08:34:42;;;;;;;8.60;7.37;;;22.80;99.90;;;;;;5073216;28;20197;-69
2023/06/18 08:37:08;;;;;;;7.53;6.83;;;23.00;99.90;;;;;;5073520;28;20412;-69
2023/06/18 08:39:34;;;;;;;8.17;7.40;;;23.10;99.90;;;;;;5073248;28;20474;-69
2023/06/18 08:42:00;;;;;;;7.73;7.13;;;23.20;1.00;;;;;;5072309;28;20932;-69
2023/06/18 08:44:35;;;;;;;8.30;6.97;;;23.20;99.90;;;;;;5074908;28;20178;-69
2023/06/18 08:47:03;;;;;;;7.17;6.47;;;23.30;99.90;;;;;;5075277;28;20812;-70
2023/06/18 08:49:33;;;;;;;13.80;6.23;;;23.50;99.90;;;;;;5092620;28;20445;-69
2023/06/18 08:52:07;;;;;;;5.90;5.50;;;23.60;99.90;;;;;;5092364;28;20919;-69
2023/06/18 08:54:35;;;;;;;7.57;6.50;;;23.80;99.90;;;;;;5093143;28;20431;-70
2023/06/18 08:57:10;;;;;;;6.70;6.20;;;23.90;99.90;;;;;;5093278;28;20400;-68
2023/06/18 08:59:37;;;;;;;10.03;7.10;;;24.00;99.90;;;;;;5092177;28;20434;-70
2023/06/18 09:02:04;;;;;;;7.50;6.80;;;24.10;99.90;;;;;;5092279;28;20492;-70
2023/06/18 09:04:33;;;;;;;7.17;6.57;;;24.30;99.90;;;;;;5092323;28;20470;-69
2023/06/18 09:07:00;;;;;;;7.53;6.83;;;24.50;99.90;;;;;;5092876;28;20986;-70
2023/06/18 09:09:27;;;;;;;7.33;6.60;;;24.60;99.90;;;;;;5075269;28;20415;-68
2023/06/18 09:11:53;;;;;;;7.23;6.63;;;24.60;99.90;;;;;;5091534;28;20451;-69
2023/06/18 09:14:18;;;;;;;7.40;6.70;;;24.80;99.90;;;;;;5075301;28;20512;-69
2023/06/18 09:16:44;;;;;;;7.83;7.13;;;25.00;99.90;;;;;;5093005;28;20623;-69
2023/06/18 09:19:10;;;;;;;6.63;6.10;;;25.10;99.90;;;;;;5093030;28;20272;-69
2023/06/18 09:21:40;;;;;;;8.17;7.57;;;25.40;99.90;;;;;;5091960;28;20202;-70
2023/06/18 09:24:11;;;;;;;8.10;7.37;;;25.70;99.90;;;;;;5092749;28;20457;-71
2023/06/18 09:26:37;;;;;;;7.47;6.70;;;25.80;99.90;;;;;;5071271;28;20514;-69
2023/06/18 09:29:07;;;;;;;8.40;6.40;;;25.90;99.90;;;;;;5074579;28;20522;-70
2023/06/18 09:31:34;;;;;;;7.17;6.43;;;26.00;99.90;;;;;;5096173;28;20219;-69
2023/06/18 09:34:18;;;;;;;11.93;6.37;;;26.10;99.90;;;;;;5096941;28;20411;-69
2023/06/18 09:36:45;;;;;;;6.67;6.17;;;26.20;99.90;;;;;;5096899;28;20937;-69
2023/06/18 09:39:18;;;;;;;6.90;6.27;;;26.00;99.90;;;;;;5095482;28;20820;-71
2023/06/18 09:41:45;;;;;;;6.50;5.97;;;26.20;99.90;;;;;;5095978;28;20443;-70
2023/06/18 09:44:12;;;;;;;6.27;5.70;;;26.40;99.90;;;;;;5095970;28;20423;-71
2023/06/18 09:46:41;;;;;;;6.90;6.30;;;26.70;99.90;;;;;;5095154;28;20419;-70
2023/06/18 09:49:06;;;;;;;6.80;6.10;;;27.00;99.90;;;;;;5095590;28;20412;-73
2023/06/18 09:51:38;;;;;;;6.97;5.90;;;27.20;99.90;;;;;;5095288;28;20193;-66
2023/06/18 09:54:05;;;;;;;5.40;4.90;;;27.10;99.90;;;;;;5096315;28;20231;-67
2023/06/18 09:56:31;;;;;;;5.27;4.77;;;26.80;99.90;;;;;;5096516;28;20388;-67
2023/06/18 09:58:57;;;;;;;8.03;6.00;;;26.70;99.90;;;;;;5096399;28;20401;-69
2023/06/18 10:01:23;;;;;;;5.80;5.40;;;26.60;99.90;;;;;;5093212;28;20181;-69
2023/06/18 10:03:49;;;;;;;6.13;5.63;;;26.60;99.90;;;;;;5094997;28;20591;-66
2023/06/18 10:06:21;;;;;;;6.33;5.83;;;26.60;99.90;;;;;;5096274;28;20431;-66
2023/06/18 10:08:52;;;;;;;6.20;5.70;;;26.50;99.90;;;;;;5096389;28;20165;-66
2023/06/18 10:11:19;;;;;;;5.90;5.40;;;26.50;99.90;;;;;;5093296;28;20431;-66
2023/06/18 10:13:50;;;;;;;6.93;6.43;;;26.60;99.90;;;;;;5096088;28;20427;-68
2023/06/18 10:16:17;;;;;;;6.40;5.63;;;26.60;99.90;;;;;;5096206;28;20408;-70
2023/06/18 10:19:09;;;;;;;6.43;5.93;;;26.40;99.90;;;;;;5096113;28;20426;-70
2023/06/18 10:21:38;;;;;;;6.53;5.90;;;26.40;99.90;;;;;;5059958;28;20994;-67
2023/06/18 10:24:54;;;;;;;6.27;5.37;;;26.40;99.90;;;;;;5077755;28;20510;-71
2023/06/18 10:27:19;;;;;;;5.97;5.50;;;26.40;99.90;;;;;;5057359;28;20444;-71
2023/06/18 10:29:46;;;;;;;5.33;4.83;;;26.50;99.90;;;;;;5075484;28;20431;-66
2023/06/18 10:32:13;;;;;;;6.77;6.17;;;26.60;99.90;;;;;;5056824;28;20276;-66
2023/06/18 10:34:39;;;;;;;5.63;5.13;;;26.70;99.90;;;;;;5066268;28;20459;-66
2023/06/18 10:37:07;;;;;;;6.40;5.80;;;26.70;99.90;;;;;;5095501;28;20418;-66
2023/06/18 10:39:34;;;;;;;5.13;4.83;;;26.80;99.90;;;;;;5093619;28;20914;-66
2023/06/18 10:42:13;;;;;;;6.27;5.73;;;26.90;99.90;;;;;;5093122;28;20458;-66
2023/06/18 10:44:48;;;;;;;5.97;5.43;;;27.00;99.90;;;;;;5094528;28;20432;-67
2023/06/18 10:47:22;;;;;;;6.03;5.53;;;27.00;99.90;;;;;;5095203;28;20391;-67
2023/06/18 10:50:03;;;;;;;5.70;5.20;;;27.00;99.90;;;;;;5094221;28;20431;-71
2023/06/18 10:52:35;;;;;;;6.30;5.70;;;27.00;99.90;;;;;;5094389;28;20480;-66
2023/06/18 10:55:12;;;;;;;5.60;5.10;;;27.00;99.90;;;;;;5094086;28;20475;-67
2023/06/18 10:57:41;;;;;;;5.90;5.30;;;27.00;99.90;;;;;;5094382;28;20400;-70
2023/06/18 11:00:33;;;;;;;6.50;6.00;;;27.10;99.90;;;;;;5094342;28;20506;-70
2023/06/18 11:03:04;;;;;;;5.50;5.10;;;27.20;99.90;;;;;;5091118;28;20463;-70
2023/06/18 11:05:34;;;;;;;5.63;5.23;;;27.20;99.90;;;;;;5095150;28;20407;-71
2023/06/18 11:08:10;;;;;;;5.70;5.03;;;27.30;99.90;;;;;;5094394;28;20423;-71
2023/06/18 11:10:37;;;;;;;6.30;5.80;;;27.40;99.90;;;;;;5094235;28;20490;-72
2023/06/18 11:13:04;;;;;;;5.60;5.10;;;27.50;99.90;;;;;;5095131;28;20461;-70
2023/06/18 11:15:30;;;;;;;5.27;4.90;;;27.60;99.90;;;;;;5093529;28;20836;-70
2023/06/18 11:18:00;;;;;;;6.03;5.53;;;27.60;99.90;;;;;;5094881;28;20403;-71
2023/06/18 11:20:29;;;;;;;5.90;5.47;;;27.80;99.90;;;;;;5094160;28;20434;-70
2023/06/18 11:22:55;;;;;;;6.80;5.63;;;27.90;99.90;;;;;;5094769;28;20953;-71
2023/06/18 11:25:22;;;;;;;5.93;5.43;;;28.00;99.90;;;;;;5093630;28;20492;-71
2023/06/18 11:27:48;;;;;;;6.13;5.63;;;28.00;99.90;;;;;;5094727;28;20406;-70
2023/06/18 11:30:16;;;;;;;5.03;4.70;;;28.00;99.90;;;;;;5075679;28;20408;-70
2023/06/18 11:32:43;;;;;;;7.07;6.47;;;28.00;99.90;;;;;;5094596;28;20168;-70
2023/06/18 11:35:10;;;;;;;6.77;5.97;;;27.80;99.90;;;;;;5091605;28;20453;-70
2023/06/18 11:37:38;;;;;;;6.03;5.60;;;27.50;99.90;;;;;;5094670;28;20406;-71
2023/06/18 11:40:08;;;;;;;5.23;4.83;;;27.30;99.90;;;;;;5075984;28;20415;-74
2023/06/18 11:42:36;;;;;;;6.53;5.23;;;27.20;99.90;;;;;;5085028;28;20889;-72
2023/06/18 11:45:05;;;;;;;6.17;5.60;;;27.00;99.90;;;;;;5074280;28;20409;-71
2023/06/18 11:47:32;;;;;;;6.53;6.03;;;26.80;99.90;;;;;;5078339;28;20426;-71
2023/06/18 11:49:59;;;;;;;6.13;5.67;;;26.70;99.90;;;;;;5093938;28;20514;-72
2023/06/18 11:52:26;;;;;;;7.50;6.13;;;26.90;99.90;;;;;;5093493;28;20430;-70
2023/06/18 11:54:54;;;;;;;6.00;5.50;;;27.10;99.90;;;;;;5093170;28;20427;-71
2023/06/18 11:57:21;;;;;;;7.80;7.20;;;27.10;99.90;;;;;;5094311;28;20404;-71
2023/06/18 11:59:51;;;;;;;6.77;6.17;;;27.00;99.90;;;;;;5076305;28;20494;-73
2023/06/18 12:02:28;;;;;;;10.20;8.10;;;26.90;99.90;;;;;;5091509;28;20588;-71
2023/06/18 12:05:00;;;;;;;7.03;6.33;;;26.90;99.90;;;;;;5093874;28;20423;-70
2023/06/18 12:07:26;;;;;;;7.07;6.47;;;27.10;99.90;;;;;;5094029;28;20414;-70
2023/06/18 12:09:55;;;;;;;5.80;5.30;;;27.10;99.90;;;;;;5093949;28;20445;-70
2023/06/18 12:12:57;;;;;;;6.60;6.10;;;27.00;99.90;;;;;;5092462;28;20407;-70
2023/06/18 12:15:37;;;;;;;7.43;6.07;;;27.00;99.90;;;;;;5093126;28;20441;-70
2023/06/18 12:18:17;;;;;;;7.00;5.43;;;27.10;99.90;;;;;;5093727;28;20423;-72
2023/06/18 12:20:43;;;;;;;6.63;6.03;;;27.10;99.90;;;;;;5092933;28;20403;-71
2023/06/18 12:23:11;;;;;;;5.67;5.27;;;27.20;99.90;;;;;;5093112;28;20971;-71
2023/06/18 12:25:38;;;;;;;6.27;5.63;;;27.30;99.90;;;;;;5093760;28;20396;-70
2023/06/18 12:28:04;;;;;;;5.07;4.73;;;27.40;99.90;;;;;;5093758;28;20407;-71
2023/06/18 12:30:36;;;;;;;6.13;5.53;;;27.50;99.90;;;;;;5091995;28;20854;-72
2023/06/18 12:33:07;;;;;;;6.60;6.10;;;27.70;99.90;;;;;;5091581;28;20789;-71
2023/06/18 12:35:34;;;;;;;5.70;5.27;;;27.80;99.90;;;;;;5075353;28;20408;-71
2023/06/18 12:38:10;;;;;;;8.80;6.23;;;27.80;99.90;;;;;;5093626;28;20516;-71
2023/06/18 12:40:46;;;;;;;6.83;5.77;;;27.80;99.90;;;;;;5092555;28;20400;-71
2023/06/18 12:43:13;;;;;;;6.83;6.30;;;27.90;99.90;;;;;;5093339;28;20605;-70
2023/06/18 12:45:40;;;;;;;5.83;5.33;;;28.00;99.90;;;;;;5092330;28;20442;-70
2023/06/18 12:48:14;;;;;;;6.87;6.33;;;28.20;99.90;;;;;;5092623;28;20395;-71
2023/06/18 12:50:41;;;;;;;8.37;5.70;;;28.30;99.90;;;;;;5091981;28;20558;-72
2023/06/18 12:53:21;;;;;;;6.10;5.60;;;28.10;99.90;;;;;;5092507;28;20495;-71
2023/06/18 12:55:50;;;;;;;7.37;6.63;;;28.00;99.90;;;;;;5093407;28;20411;-72
2023/06/18 12:58:23;;;;;;;7.63;5.93;;;28.00;99.90;;;;;;5093230;28;20499;-70
2023/06/18 13:00:53;;;;;;;6.50;5.00;;;28.20;99.90;;;;;;5074083;28;20443;-71
2023/06/18 13:03:20;;;;;;;10.40;6.03;;;28.40;99.90;;;;;;5092506;28;20812;-71
2023/06/18 13:05:47;;;;;;;6.63;6.00;;;28.60;99.90;;;;;;5091979;28;20796;-72
2023/06/18 13:08:18;;;;;;;7.80;5.43;;;28.90;99.90;;;;;;5091499;28;20427;-72
2023/06/18 13:10:46;;;;;;;6.80;5.63;;;29.50;99.90;;;;;;5092089;28;20753;-71
2023/06/18 13:13:12;;;;;;;10.30;6.00;;;30.40;99.90;;;;;;5093079;28;20428;-72
2023/06/18 13:15:40;;;;;;;6.07;5.57;;;31.40;99.90;;;;;;5093115;28;20397;-71
2023/06/18 13:18:06;;;;;;;5.50;5.10;;;31.70;99.90;;;;;;5093047;28;20398;-72